Time;durP1;ratioP1;P1;durP2;ratioP2;P2;SDS_P1;SDS_P2;PMS_P1;PMS_P2;Temp;Humidity;BMP_temperature;BMP_pressure;BME280_temperature;BME280_humidity;BME280_pressure;Samples;Min_cycle;Max_cycle;Signal;HPM_P1;HPM_P2
2023/06/22 00:00:12;;;;;;;9.50;8.47;;;;;;;26.22;55.14;98731.00;6971846;28;20707;-86
2023/06/22 00:03:33;;;;;;;9.57;8.03;;;;;;;26.38;54.21;98726.81;6971928;28;20214;-86
2023/06/22 00:06:55;;;;;;;12.53;8.40;;;;;;;26.17;54.64;98739.41;6971627;28;20199;-87
2023/06/22 00:10:16;;;;;;;9.73;8.37;;;;;;;26.01;55.39;98740.00;6976068;28;20315;-86
2023/06/22 00:13:38;;;;;;;9.73;7.43;;;;;;;26.01;54.86;98718.72;6977216;28;20214;-86
2023/06/22 00:17:01;;;;;;;11.77;8.93;;;;;;;25.66;56.26;98730.41;6976856;28;20212;-86
2023/06/22 00:20:22;;;;;;;8.50;7.70;;;;;;;25.55;55.79;98668.19;6976767;28;20222;-86
2023/06/22 00:23:44;;;;;;;11.10;8.50;;;;;;;25.40;55.31;98609.69;6976768;28;20280;-86
2023/06/22 00:27:11;;;;;;;9.97;8.47;;;;;;;25.58;54.96;98650.22;6976696;28;20202;-86
2023/06/22 00:30:33;;;;;;;10.00;8.57;;;;;;;25.80;56.08;98731.28;6985710;28;20315;-86
2023/06/22 00:33:55;;;;;;;9.53;8.30;;;;;;;25.98;55.49;98735.09;7000472;28;20206;-86
2023/06/22 00:37:18;;;;;;;9.33;7.90;;;;;;;26.07;55.34;98727.75;6999914;28;20207;-86
2023/06/22 00:40:40;;;;;;;9.30;8.37;;;;;;;25.72;54.98;98670.38;6987421;28;20231;-86
2023/06/22 00:44:01;;;;;;;10.83;7.73;;;;;;;26.17;54.77;98724.75;6976615;28;20311;-86
2023/06/22 00:47:23;;;;;;;9.50;7.83;;;;;;;25.95;55.75;98728.22;6976586;28;20206;-85
2023/06/22 00:50:50;;;;;;;9.47;7.67;;;;;;;25.94;55.47;98710.03;6975348;28;20821;-86
2023/06/22 00:54:13;;;;;;;10.80;7.63;;;;;;;26.03;54.70;98715.66;6975228;28;20229;-87
2023/06/22 00:57:37;;;;;;;10.57;8.60;;;;;;;25.32;57.22;98712.53;6975838;28;20210;-86
2023/06/22 01:01:00;;;;;;;11.03;9.27;;;;;;;25.14;57.86;98727.97;6975664;28;20335;-86
2023/06/22 01:04:25;;;;;;;12.93;8.73;;;;;;;25.12;57.81;98732.97;6975751;28;20243;-86
2023/06/22 01:07:56;;;;;;;9.83;8.80;;;;;;;25.27;57.70;98734.72;6975834;28;20375;-87
2023/06/22 01:11:21;;;;;;;9.40;8.60;;;;;;;24.43;58.65;98679.69;6975854;28;20239;-85
2023/06/22 01:14:46;;;;;;;9.77;8.27;;;;;;;25.12;57.87;98787.38;6966915;28;20309;-86
2023/06/22 01:18:09;;;;;;;8.70;7.90;;;;;;;25.03;58.23;98781.72;6948156;28;20652;-86
2023/06/22 01:21:32;;;;;;;9.37;8.50;;;;;;;24.98;58.14;98789.22;6947744;28;20222;-85
2023/06/22 01:25:08;;;;;;;10.87;8.57;;;;;;;24.88;58.97;98798.47;6947507;28;20340;-86
2023/06/22 01:28:47;;;;;;;8.63;7.83;;;;;;;25.36;57.15;98788.13;6946905;28;20199;-86
2023/06/22 01:32:08;;;;;;;12.70;8.73;;;;;;;24.92;58.26;98771.94;6947653;28;20210;-86
2023/06/22 01:35:30;;;;;;;8.87;8.07;;;;;;;24.43;59.98;98732.06;6947850;28;20632;-86
2023/06/22 01:38:53;;;;;;;10.13;8.70;;;;;;;24.60;58.67;98710.38;6946637;28;20316;-86
2023/06/22 01:42:15;;;;;;;11.40;8.93;;;;;;;24.58;58.22;98735.47;6947629;28;20659;-86
2023/06/22 01:45:38;;;;;;;11.13;8.10;;;;;;;24.34;58.61;98704.34;6946953;28;20223;-86
2023/06/22 01:48:59;;;;;;;11.57;9.40;;;;;;;24.24;60.11;98770.59;6946980;28;20250;-86
2023/06/22 01:52:21;;;;;;;10.93;9.60;;;;;;;23.82;61.99;98769.66;6947192;28;20262;-85
2023/06/22 01:55:43;;;;;;;9.30;8.40;;;;;;;23.64;60.59;98639.09;6946499;28;20217;-86
2023/06/22 01:59:11;;;;;;;9.70;8.70;;;;;;;24.91;58.50;98761.19;6946686;28;20621;-86
2023/06/22 02:02:37;;;;;;;9.57;8.60;;;;;;;24.90;58.78;98773.34;6946490;28;20241;-86
2023/06/22 02:06:03;;;;;;;10.10;8.77;;;;;;;25.00;56.60;98773.19;6946305;28;20294;-86
2023/06/22 02:09:27;;;;;;;12.03;8.80;;;;;;;24.45;58.29;98772.00;6953523;28;20818;-86
2023/06/22 02:12:49;;;;;;;9.40;8.50;;;;;;;24.31;59.28;98773.03;6946598;28;20229;-86
2023/06/22 02:16:11;;;;;;;10.10;9.13;;;;;;;24.45;58.98;98777.53;6946443;28;20348;-86
2023/06/22 02:19:37;;;;;;;10.53;8.53;;;;;;;24.51;59.32;98779.09;6946381;28;20328;-86
2023/06/22 02:22:58;;;;;;;10.87;9.07;;;;;;;24.22;59.52;98728.75;6946282;28;20248;-86
2023/06/22 02:26:20;;;;;;;9.37;8.37;;;;;;;24.36;57.74;98709.56;6946240;28;20236;-86
2023/06/22 02:29:41;;;;;;;11.03;9.27;;;;;;;24.27;58.92;98764.53;6945402;28;20253;-86
2023/06/22 02:33:03;;;;;;;10.13;8.77;;;;;;;24.04;60.26;98767.25;6945984;28;20505;-86
2023/06/22 02:36:26;;;;;;;11.37;8.97;;;;;;;23.88;60.55;98765.78;6945906;28;20366;-86
2023/06/22 02:39:48;;;;;;;10.23;8.60;;;;;;;23.76;61.03;98760.66;6945578;28;20220;-86
2023/06/22 02:43:09;;;;;;;11.83;8.70;;;;;;;24.00;58.55;98672.53;6945683;28;20891;-86
2023/06/22 02:46:31;;;;;;;9.60;8.33;;;;;;;24.35;58.95;98747.31;6944991;28;20329;-87
2023/06/22 02:49:52;;;;;;;8.93;7.97;;;;;;;24.45;58.60;98760.16;6945233;28;20244;-86
2023/06/22 02:53:15;;;;;;;9.90;8.90;;;;;;;24.15;59.04;98749.50;6945552;28;20414;-87
2023/06/22 02:56:37;;;;;;;10.50;8.70;;;;;;;23.68;60.78;98750.28;6945765;28;20210;-86
2023/06/22 03:00:00;;;;;;;11.30;8.87;;;;;;;23.83;60.37;98735.53;6946340;28;20239;-86
2023/06/22 03:03:21;;;;;;;10.90;9.30;;;;;;;23.63;61.40;98725.56;6946477;28;20232;-86
2023/06/22 03:06:43;;;;;;;14.23;9.57;;;;;;;22.76;61.57;98590.19;6945665;28;20275;-86
2023/06/22 03:10:07;;;;;;;10.20;8.87;;;;;;;23.85;60.39;98723.13;6946335;28;20224;-86
2023/06/22 03:13:28;;;;;;;12.33;8.93;;;;;;;23.83;60.27;98708.81;6946692;28;20228;-86
2023/06/22 03:16:50;;;;;;;9.17;8.27;;;;;;;23.93;60.18;98724.41;6963999;28;20368;-87
2023/06/22 03:20:12;;;;;;;9.43;8.47;;;;;;;24.19;60.03;98739.56;6973923;28;20846;-86
2023/06/22 03:23:33;;;;;;;10.03;8.73;;;;;;;24.01;59.83;98713.56;6973746;28;20216;-86
2023/06/22 03:27:00;;;;;;;9.93;8.93;;;;;;;24.22;59.29;98720.50;6972762;28;20322;-86
2023/06/22 03:30:22;;;;;;;9.67;8.07;;;;;;;24.31;59.46;98715.16;6973541;28;20232;-86
2023/06/22 03:33:43;;;;;;;10.87;8.73;;;;;;;24.15;59.16;98694.41;6973720;28;20246;-86
2023/06/22 03:37:05;;;;;;;10.13;8.10;;;;;;;24.34;58.07;98717.28;6974257;28;20259;-86
2023/06/22 03:40:26;;;;;;;12.47;9.50;;;;;;;23.87;58.92;98736.56;6975618;28;20377;-86
2023/06/22 03:43:49;;;;;;;12.17;9.37;;;;;;;23.18;61.30;98725.97;6976118;28;20267;-86
2023/06/22 03:47:11;;;;;;;10.27;9.17;;;;;;;22.92;62.17;98685.19;6978595;28;20232;-85
2023/06/22 03:50:32;;;;;;;13.97;9.67;;;;;;;22.84;62.40;98661.88;6978653;28;20359;-87
2023/06/22 03:53:54;;;;;;;10.43;9.43;;;;;;;23.28;62.16;98728.66;6976347;28;20660;-87
2023/06/22 03:57:15;;;;;;;10.50;9.20;;;;;;;23.75;61.00;98725.97;6977579;28;20316;-87
2023/06/22 04:00:38;;;;;;;9.43;8.13;;;;;;;23.72;60.72;98726.53;6977900;28;20323;-87
2023/06/22 04:04:00;;;;;;;10.13;8.97;;;;;;;23.64;60.95;98721.69;6978758;28;20293;-87
2023/06/22 04:07:21;;;;;;;9.47;8.43;;;;;;;23.27;59.99;98614.22;6978222;28;20262;-86
2023/06/22 04:10:43;;;;;;;9.50;8.33;;;;;;;23.89;59.29;98663.59;6978395;28;20315;-87
2023/06/22 04:14:05;;;;;;;10.23;8.43;;;;;;;24.23;58.64;98696.50;6965801;28;20689;-87
2023/06/22 04:17:28;;;;;;;10.07;8.40;;;;;;;24.50;58.09;98718.75;6957286;28;20217;-88
2023/06/22 04:20:49;;;;;;;10.07;8.40;;;;;;;24.32;58.21;98691.97;6967346;28;20244;-86
2023/06/22 04:24:11;;;;;;;10.70;8.53;;;;;;;24.23;58.80;98708.34;6967652;28;20274;-88
2023/06/22 04:27:37;;;;;;;10.17;8.33;;;;;;;23.77;59.97;98701.72;6977972;28;20205;-88
2023/06/22 04:31:01;;;;;;;8.83;7.93;;;;;;;24.12;59.49;98679.28;6978685;28;20332;-88
2023/06/22 04:34:26;;;;;;;9.97;8.97;;;;;;;24.07;59.82;98681.28;6956832;28;20210;-88
2023/06/22 04:37:48;;;;;;;9.37;8.47;;;;;;;24.29;59.85;98698.91;6951710;28;20208;-87
2023/06/22 04:41:14;;;;;;;10.13;8.40;;;;;;;24.47;59.04;98683.47;6959704;28;20232;-88
2023/06/22 04:44:35;;;;;;;9.03;8.03;;;;;;;24.27;58.73;98610.22;6977485;28;20236;-88
2023/06/22 04:47:57;;;;;;;9.37;8.37;;;;;;;24.71;58.10;98676.00;6979003;28;20268;-87
2023/06/22 04:51:21;;;;;;;9.73;8.73;;;;;;;25.14;57.33;98685.78;6981901;28;20318;-88
2023/06/22 04:54:47;;;;;;;9.23;8.40;;;;;;;25.47;56.56;98677.19;6979733;28;20205;-87
2023/06/22 04:58:09;;;;;;;11.67;8.13;;;;;;;25.81;55.47;98663.00;6985508;28;20226;-87
2023/06/22 05:01:31;;;;;;;8.97;7.97;;;;;;;26.07;55.50;98655.88;6981214;28;20269;-88
2023/06/22 05:04:56;;;;;;;8.93;8.03;;;;;;;26.60;53.98;98657.72;6982255;28;20222;-88
2023/06/22 05:08:19;;;;;;;9.27;8.20;;;;;;;26.68;53.64;98659.78;6979533;28;20210;-88
2023/06/22 05:11:41;;;;;;;8.43;6.90;;;;;;;27.37;51.76;98647.25;6979587;28;20282;-87
2023/06/22 05:15:02;;;;;;;9.40;8.23;;;;;;;27.49;50.56;98655.78;6977697;28;20643;-87
2023/06/22 05:18:29;;;;;;;11.20;8.13;;;;;;;26.65;53.04;98626.38;6954756;28;20608;-87
2023/06/22 05:21:54;;;;;;;8.67;7.87;;;;;;;27.49;51.27;98642.75;6966038;28;20204;-87
2023/06/22 05:25:17;;;;;;;8.40;7.50;;;;;;;26.79;52.54;98607.78;6966858;28;20253;-87
2023/06/22 05:28:45;;;;;;;9.17;8.27;;;;;;;27.06;51.27;98625.06;6962993;28;20219;-87
2023/06/22 05:32:08;;;;;;;10.43;7.87;;;;;;;26.95;52.01;98642.25;6983110;28;20220;-86
2023/06/22 05:35:43;;;;;;;8.63;7.73;;;;;;;26.42;52.15;98575.72;6980783;28;20200;-87
2023/06/22 05:39:13;;;;;;;11.17;8.17;;;;;;;26.06;53.57;98574.09;6985890;28;20222;-86
2023/06/22 05:42:36;;;;;;;10.10;8.27;;;;;;;25.76;55.18;98619.75;6977394;28;20197;-87
2023/06/22 05:45:58;;;;;;;8.73;7.73;;;;;;;26.18;54.51;98624.13;6977490;28;20755;-86
2023/06/22 05:49:21;;;;;;;8.53;7.73;;;;;;;26.73;52.63;98612.59;6977183;28;20250;-87
2023/06/22 05:52:43;;;;;;;12.93;8.03;;;;;;;27.22;51.93;98622.72;6977216;28;20213;-86
2023/06/22 05:56:05;;;;;;;10.93;7.50;;;;;;;28.38;48.84;98632.19;6977610;28;20658;-85
2023/06/22 05:59:28;;;;;;;7.50;6.67;;;;;;;29.20;47.24;98639.19;6978442;28;20229;-87
2023/06/22 06:02:49;;;;;;;8.23;7.43;;;;;;;28.14;48.34;98620.69;6979228;28;20218;-89
2023/06/22 06:06:11;;;;;;;8.93;6.83;;;;;;;29.09;46.77;98628.75;6986485;28;20306;-87
2023/06/22 06:09:32;;;;;;;8.97;7.30;;;;;;;27.52;48.31;98552.66;6976755;28;20233;-88
2023/06/22 06:12:54;;;;;;;8.40;7.53;;;;;;;28.02;48.56;98609.41;6991641;28;20276;-88
2023/06/22 06:16:17;;;;;;;9.00;7.00;;;;;;;28.64;48.64;98622.72;6980266;28;20200;-89
2023/06/22 06:19:38;;;;;;;7.97;6.83;;;;;;;28.90;46.78;98608.84;6976665;28;20223;-88
2023/06/22 06:23:04;;;;;;;7.57;6.80;;;;;;;28.61;47.54;98545.69;6976966;28;20212;-88
2023/06/22 06:26:29;;;;;;;9.87;6.80;;;;;;;29.79;44.35;98618.75;6980392;28;20700;-89
2023/06/22 06:29:50;;;;;;;7.40;6.67;;;;;;;28.70;46.78;98620.59;6969342;28;20321;-88
2023/06/22 06:33:14;;;;;;;8.40;6.33;;;;;;;28.64;46.60;98558.09;6976064;28;20302;-89
2023/06/22 06:36:35;;;;;;;7.30;6.60;;;;;;;28.84;45.84;98583.19;6974419;28;20208;-89
2023/06/22 06:39:57;;;;;;;10.57;7.10;;;;;;;27.93;46.75;98506.00;6975061;28;20231;-89
2023/06/22 06:43:18;;;;;;;7.77;6.07;;;;;;;26.99;48.80;98489.06;6974949;28;20667;-89
2023/06/22 06:46:41;;;;;;;8.57;6.00;;;;;;;28.43;48.09;98595.97;6974322;28;20235;-89
2023/06/22 06:50:08;;;;;;;8.27;5.90;;;;;;;29.01;46.21;98601.84;6973161;28;20241;-88
2023/06/22 06:53:29;;;;;;;6.77;5.87;;;;;;;27.56;48.01;98551.72;6978954;28;20233;-89
2023/06/22 06:56:51;;;;;;;6.53;5.67;;;;;;;28.96;46.60;98622.22;6973939;28;20216;-89
2023/06/22 07:00:14;;;;;;;7.63;6.07;;;;;;;28.70;45.55;98540.13;6974200;28;20708;-89
2023/06/22 07:03:36;;;;;;;7.40;5.80;;;;;;;29.45;44.58;98573.59;6974504;28;20560;-89
2023/06/22 07:07:01;;;;;;;8.10;5.80;;;;;;;29.12;45.62;98636.41;6973427;28;20305;-89
2023/06/22 07:10:23;;;;;;;7.37;5.93;;;;;;;29.94;43.46;98570.91;6950886;28;20254;-88
2023/06/22 07:13:44;;;;;;;7.50;6.20;;;;;;;29.77;44.21;98590.47;6955449;28;20200;-87
2023/06/22 07:17:06;;;;;;;6.27;5.67;;;;;;;30.60;42.51;98577.50;6974949;28;20359;-88
2023/06/22 07:20:28;;;;;;;6.80;6.07;;;;;;;29.72;43.59;98601.78;6981351;28;20248;-88
2023/06/22 07:23:51;;;;;;;5.83;5.23;;;;;;;29.99;43.50;98597.72;6980694;28;20221;-89
2023/06/22 07:27:12;;;;;;;9.53;6.27;;;;;;;29.48;44.50;98582.06;6982470;28;20223;-88
2023/06/22 07:30:35;;;;;;;7.43;5.17;;;;;;;29.44;44.36;98588.63;6979865;28;20312;-89
2023/06/22 07:33:56;;;;;;;7.93;5.20;;;;;;;31.50;41.32;98559.72;6979916;28;20218;-89
2023/06/22 07:37:18;;;;;;;8.17;5.77;;;;;;;30.86;41.13;98556.66;6978653;28;20292;-88
2023/06/22 07:40:42;;;;;;;8.03;6.00;;;;;;;30.68;41.19;98532.09;6978736;28;20219;-88
2023/06/22 07:44:04;;;;;;;7.67;4.47;;;;;;;31.59;40.06;98552.06;6978501;28;20349;-88
2023/06/22 07:47:28;;;;;;;7.13;5.43;;;;;;;31.96;38.52;98537.78;6977794;28;20807;-88
2023/06/22 07:50:49;;;;;;;6.87;4.80;;;;;;;31.25;38.96;98418.75;6978804;28;20698;-88
2023/06/22 07:54:11;;;;;;;6.43;4.80;;;;;;;30.72;39.31;98400.22;6978567;28;20202;-89
2023/06/22 07:57:34;;;;;;;6.67;5.20;;;;;;;30.85;40.58;98470.69;6978362;28;20695;-88
2023/06/22 08:00:55;;;;;;;8.07;5.40;;;;;;;31.54;38.60;98449.16;6978036;28;20226;-88
2023/06/22 08:04:17;;;;;;;9.83;5.07;;;;;;;31.10;40.17;98498.22;6978413;28;20263;-89
2023/06/22 08:07:38;;;;;;;5.90;4.83;;;;;;;32.00;39.31;98513.59;6978092;28;20767;-89
2023/06/22 08:11:00;;;;;;;9.50;4.77;;;;;;;31.51;39.46;98503.63;6978215;28;20237;-89
2023/06/22 08:14:23;;;;;;;6.80;5.20;;;;;;;31.63;39.21;98488.88;6977714;28;20198;-89
2023/06/22 08:17:45;;;;;;;5.87;4.77;;;;;;;32.40;39.52;98510.84;6976384;28;20209;-88
2023/06/22 08:21:06;;;;;;;8.93;4.70;;;;;;;33.17;36.95;98499.06;6977399;28;20316;-90
2023/06/22 08:24:30;;;;;;;5.87;4.60;;;;;;;32.41;37.82;98414.78;6977508;28;20214;-89
2023/06/22 08:27:51;;;;;;;8.40;4.40;;;;;;;33.23;35.57;98405.41;6977331;28;20225;-89
2023/06/22 08:31:15;;;;;;;6.90;4.23;;;;;;;34.89;34.08;98512.38;6976853;28;20286;-89
2023/06/22 08:34:37;;;;;;;8.07;5.13;;;;;;;34.07;34.43;98530.56;6977887;28;20202;-90
2023/06/22 08:37:59;;;;;;;8.33;4.47;;;;;;;33.99;35.00;98468.00;6977276;28;20282;-90
2023/06/22 08:41:21;;;;;;;7.43;4.63;;;;;;;35.06;32.80;98481.03;6977646;28;20219;-90
2023/06/22 08:44:42;;;;;;;5.27;4.17;;;;;;;35.53;32.31;98555.25;6977421;28;20288;-89
2023/06/22 08:48:06;;;;;;;6.17;4.37;;;;;;;35.79;32.07;98534.88;6976725;28;20289;-89
2023/06/22 08:51:28;;;;;;;5.50;4.70;;;;;;;35.51;32.54;98568.00;6977927;28;20306;-88
2023/06/22 08:54:50;;;;;;;7.67;5.00;;;;;;;35.63;32.27;98562.22;6977292;28;20294;-89
2023/06/22 08:58:11;;;;;;;7.67;4.70;;;;;;;35.98;31.15;98563.66;6971229;28;20768;-86
2023/06/22 09:01:33;;;;;;;8.57;4.70;;;;;;;35.31;32.34;98508.38;6956395;28;20236;-89
2023/06/22 09:04:56;;;;;;;8.47;4.37;;;;;;;34.94;31.92;98470.00;6963215;28;20245;-89
2023/06/22 09:08:17;;;;;;;10.43;5.40;;;;;;;34.11;33.43;98472.66;6975720;28;20234;-89
2023/06/22 09:11:39;;;;;;;6.63;4.77;;;;;;;35.21;32.94;98531.41;6976554;28;20222;-89
2023/06/22 09:15:02;;;;;;;8.57;4.67;;;;;;;36.03;30.16;98512.78;6976741;28;20203;-90
2023/06/22 09:18:24;;;;;;;7.40;4.93;;;;;;;35.70;31.21;98511.84;6975879;28;20210;-88
2023/06/22 09:21:47;;;;;;;7.43;4.63;;;;;;;35.64;32.14;98507.72;6975855;28;20206;-89
2023/06/22 09:25:10;;;;;;;8.20;4.83;;;;;;;36.19;32.26;98527.47;6976521;28;20418;-89
2023/06/22 09:28:31;;;;;;;5.70;4.33;;;;;;;35.79;31.16;98501.19;6975612;28;20234;-89
2023/06/22 09:31:53;;;;;;;10.17;5.07;;;;;;;36.20;30.58;98520.69;6977325;28;20206;-92
2023/06/22 09:35:15;;;;;;;7.67;4.57;;;;;;;35.42;30.57;98425.22;6976131;28;20203;-87
2023/06/22 09:38:38;;;;;;;8.13;5.13;;;;;;;36.25;30.25;98534.38;6975477;28;20214;-88
2023/06/22 09:42:00;;;;;;;6.67;4.77;;;;;;;36.42;30.39;98539.44;6975128;28;20209;-87
2023/06/22 09:45:22;;;;;;;10.47;5.20;;;;;;;36.17;30.73;98495.34;6976198;28;20283;-89
2023/06/22 09:48:43;;;;;;;11.53;5.20;;;;;;;36.54;30.14;98504.69;6975599;28;20361;-87
2023/06/22 09:52:06;;;;;;;11.90;6.70;;;;;;;36.91;29.26;98486.66;6974752;28;20202;-85
2023/06/22 09:55:29;;;;;;;11.03;6.80;;;;;;;35.80;30.09;98380.16;6975901;28;20292;-92
2023/06/22 09:58:52;;;;;;;9.27;4.90;;;;;;;36.85;29.80;98509.91;6974958;28;20227;-88
2023/06/22 10:02:14;;;;;;;6.77;4.67;;;;;;;36.56;30.06;98423.63;6975764;28;20219;-86
2023/06/22 10:05:35;;;;;;;9.70;4.93;;;;;;;37.80;28.86;98497.59;6975333;28;20359;-85
2023/06/22 10:08:57;;;;;;;6.50;5.33;;;;;;;38.21;28.38;98485.84;6975460;28;20244;-88
2023/06/22 10:12:20;;;;;;;6.37;4.87;;;;;;;37.82;28.13;98385.41;6975174;28;20243;-88
2023/06/22 10:15:45;;;;;;;9.13;4.93;;;;;;;37.58;27.99;98462.03;6974338;28;20253;-86
2023/06/22 10:19:06;;;;;;;7.87;5.27;;;;;;;37.43;28.79;98458.28;6973622;28;20229;-87
2023/06/22 10:22:28;;;;;;;11.97;5.83;;;;;;;35.49;30.51;98352.41;6972296;28;20290;-88
2023/06/22 10:25:50;;;;;;;8.83;5.33;;;;;;;36.79;28.86;98435.56;6973920;28;20202;-88
2023/06/22 10:29:13;;;;;;;10.67;4.90;;;;;;;35.66;30.70;98385.53;6973129;28;20222;-88
2023/06/22 10:32:34;;;;;;;9.43;4.80;;;;;;;34.67;32.37;98443.84;6974346;28;20580;-85
2023/06/22 10:35:56;;;;;;;10.53;5.00;;;;;;;36.07;31.48;98459.50;6974524;28;20290;-87
2023/06/22 10:39:17;;;;;;;9.40;4.77;;;;;;;37.11;28.95;98425.44;6973488;28;20367;-86
2023/06/22 10:42:39;;;;;;;8.03;5.50;;;;;;;37.01;28.79;98359.47;6961148;28;20240;-83
2023/06/22 10:46:02;;;;;;;9.20;4.83;;;;;;;36.18;30.10;98412.72;6953951;28;20306;-86
2023/06/22 10:49:23;;;;;;;8.43;5.10;;;;;;;36.54;29.19;98420.41;6950505;28;20377;-86
2023/06/22 10:52:45;;;;;;;9.97;4.87;;;;;;;36.08;30.06;98419.81;6971270;28;20886;-86
2023/06/22 10:56:06;;;;;;;11.03;5.70;;;;;;;35.96;30.44;98422.84;6972255;28;20270;-87
2023/06/22 10:59:28;;;;;;;11.77;5.43;;;;;;;35.88;30.44;98421.16;6973389;28;20226;-87
2023/06/22 11:02:51;;;;;;;8.10;4.90;;;;;;;36.41;29.75;98410.59;6973227;28;20218;-86
2023/06/22 11:06:15;;;;;;;10.50;5.13;;;;;;;37.28;29.62;98414.38;6973426;28;20827;-87
2023/06/22 11:09:38;;;;;;;8.47;5.20;;;;;;;37.33;28.56;98388.69;6973880;28;20222;-88
2023/06/22 11:12:59;;;;;;;10.30;5.30;;;;;;;36.69;29.10;98402.53;6974198;28;20202;-86
2023/06/22 11:16:21;;;;;;;10.87;5.17;;;;;;;36.66;29.50;98415.34;6976644;28;20371;-87
2023/06/22 11:19:44;;;;;;;10.00;5.30;;;;;;;37.26;28.31;98280.97;6972744;28;20313;-87
2023/06/22 11:23:06;;;;;;;8.37;4.90;;;;;;;38.23;27.55;98395.28;6974020;28;20274;-86
2023/06/22 11:26:28;;;;;;;8.07;5.10;;;;;;;38.97;27.01;98407.63;6972916;28;20279;-87
2023/06/22 11:29:49;;;;;;;11.97;5.67;;;;;;;38.53;26.08;98409.91;6969719;28;20313;-87
2023/06/22 11:33:11;;;;;;;12.00;5.03;;;;;;;37.80;27.17;98397.09;6971108;28;20198;-87
2023/06/22 11:36:35;;;;;;;7.40;4.73;;;;;;;38.21;27.72;98392.06;6972893;28;20202;-86
2023/06/22 11:39:56;;;;;;;10.33;5.77;;;;;;;38.32;27.33;98402.16;6974275;28;20301;-88
2023/06/22 11:43:18;;;;;;;6.93;5.60;;;;;;;38.82;26.62;98395.50;6975943;28;20248;-86
2023/06/22 11:46:39;;;;;;;9.50;5.40;;;;;;;38.73;27.18;98385.81;6975243;28;20230;-87
2023/06/22 11:50:01;;;;;;;8.13;5.30;;;;;;;38.77;27.00;98378.97;6977542;28;20245;-89
2023/06/22 11:53:26;;;;;;;8.13;5.20;;;;;;;38.50;26.42;98281.09;6974570;28;20210;-89
2023/06/22 11:56:47;;;;;;;9.68;6.07;;;;;;;38.47;26.16;98330.59;6971837;28;20206;-88
2023/06/22 12:00:16;;;;;;;9.33;5.77;;;;;;;38.73;26.60;98380.97;6972623;28;20332;-87
2023/06/22 12:03:38;;;;;;;12.67;5.10;;;;;;;38.70;27.07;98387.41;6973799;28;20210;-88
2023/06/22 12:06:59;;;;;;;10.23;5.63;;;;;;;38.85;26.50;98383.44;6976832;28;20364;-89
2023/06/22 12:10:24;;;;;;;10.87;5.87;;;;;;;38.75;27.54;98384.22;6978309;28;20706;-88
2023/06/22 12:13:46;;;;;;;10.27;5.67;;;;;;;38.58;27.89;98395.44;6978584;28;20563;-87
2023/06/22 12:17:07;;;;;;;9.37;5.97;;;;;;;39.34;26.71;98399.59;6976790;28;20251;-88
2023/06/22 12:20:29;;;;;;;12.43;6.10;;;;;;;38.97;27.32;98385.06;6977827;28;20257;-87
2023/06/22 12:23:50;;;;;;;13.63;6.13;;;;;;;39.00;27.14;98396.34;6977668;28;20311;-86
2023/06/22 12:27:16;;;;;;;11.20;5.60;;;;;;;38.58;28.01;98387.78;6977323;28;20699;-89
2023/06/22 12:30:37;;;;;;;9.73;6.43;;;;;;;38.81;27.38;98391.06;6978273;28;20679;-89
2023/06/22 12:33:59;;;;;;;14.83;5.87;;;;;;;39.24;26.80;98395.53;6977621;28;20210;-88
2023/06/22 12:37:20;;;;;;;14.33;5.90;;;;;;;38.88;27.23;98391.09;6977732;28;20293;-88
2023/06/22 12:40:42;;;;;;;12.67;5.80;;;;;;;38.70;26.77;98331.03;6978524;28;20237;-90
2023/06/22 12:44:05;;;;;;;12.27;5.97;;;;;;;38.17;27.46;98275.75;6973673;28;20209;-89
2023/06/22 12:47:27;;;;;;;10.33;5.43;;;;;;;38.62;26.95;98388.59;6976230;28;20582;-89
2023/06/22 12:50:48;;;;;;;9.30;5.97;;;;;;;38.07;27.95;98344.16;6977545;28;20702;-89
2023/06/22 12:54:10;;;;;;;11.33;5.87;;;;;;;37.56;29.26;98374.41;6977433;28;20674;-89
2023/06/22 12:57:32;;;;;;;10.53;5.57;;;;;;;37.08;29.03;98323.00;6977254;28;20203;-89
2023/06/22 13:00:55;;;;;;;10.30;5.90;;;;;;;37.40;29.43;98369.06;6977049;28;20227;-89
2023/06/22 13:04:18;;;;;;;12.13;5.70;;;;;;;37.63;29.62;98440.00;6976978;28;20293;-89
2023/06/22 13:07:39;;;;;;;10.37;5.40;;;;;;;37.72;29.58;98439.66;6976335;28;20284;-88
2023/06/22 13:11:01;;;;;;;9.90;5.80;;;;;;;37.43;29.06;98326.06;6976412;28;20245;-89
2023/06/22 13:14:22;;;;;;;8.97;5.47;;;;;;;37.76;29.87;98393.44;6976765;28;20337;-89
2023/06/22 13:17:45;;;;;;;12.40;5.73;;;;;;;37.84;28.84;98414.78;6975528;28;20212;-89
2023/06/22 13:21:07;;;;;;;12.73;5.90;;;;;;;37.46;29.64;98406.06;6976442;28;20313;-90
2023/06/22 13:24:28;;;;;;;15.63;6.13;;;;;;;37.49;29.50;98402.47;6971819;28;20285;-90
2023/06/22 13:27:50;;;;;;;13.80;5.93;;;;;;;37.81;28.62;98412.75;6975582;28;20272;-89
2023/06/22 13:31:11;;;;;;;8.37;6.07;;;;;;;37.48;29.34;98404.47;6975805;28;20280;-90
2023/06/22 13:34:34;;;;;;;13.50;5.40;;;;;;;37.34;29.60;98350.94;6976299;28;20238;-88
2023/06/22 13:37:56;;;;;;;10.27;5.30;;;;;;;38.28;28.01;98397.72;6976292;28;20652;-90
2023/06/22 13:41:18;;;;;;;11.07;5.57;;;;;;;38.60;27.17;98356.41;6961825;28;20288;-90
2023/06/22 13:44:39;;;;;;;12.80;6.30;;;;;;;38.58;26.32;98372.88;6949073;28;20213;-90
2023/06/22 13:48:01;;;;;;;12.03;6.50;;;;;;;38.27;26.81;98318.06;6947919;28;20254;-89
2023/06/22 13:51:24;;;;;;;13.40;6.27;;;;;;;38.42;27.36;98311.25;6948991;28;20234;-91
2023/06/22 13:54:45;;;;;;;14.83;5.70;;;;;;;38.28;26.72;98316.03;6969463;28;20224;-92
2023/06/22 13:58:07;;;;;;;10.93;5.50;;;;;;;38.25;26.36;98302.75;6962820;28;20295;-89
2023/06/22 14:01:29;;;;;;;9.57;5.50;;;;;;;37.55;28.39;98303.25;6948005;28;20601;-92
2023/06/22 14:04:51;;;;;;;10.97;6.17;;;;;;;38.24;27.84;98338.56;6948662;28;20675;-92
2023/06/22 14:08:14;;;;;;;10.50;5.43;;;;;;;38.65;27.29;98327.78;6971857;28;20257;-91
2023/06/22 14:11:36;;;;;;;16.67;5.73;;;;;;;39.13;26.65;98332.69;6975475;28;20272;-92
2023/06/22 14:14:58;;;;;;;11.63;5.83;;;;;;;37.95;26.85;98324.75;6975422;28;20206;-92
2023/06/22 14:18:19;;;;;;;10.97;5.67;;;;;;;38.96;25.36;98327.84;6977245;28;20199;-91
2023/06/22 14:21:41;;;;;;;14.03;5.00;;;;;;;37.83;25.44;98325.91;6983689;28;20202;-91
2023/06/22 14:25:06;;;;;;;11.73;5.50;;;;;;;38.28;26.24;98319.66;6993206;28;20221;-92
2023/06/22 14:28:27;;;;;;;9.37;4.80;;;;;;;38.38;25.39;98273.78;6975135;28;20249;-92
2023/06/22 14:31:49;;;;;;;9.03;5.07;;;;;;;39.04;25.58;98312.56;6965070;28;20211;-91
2023/06/22 14:35:11;;;;;;;11.37;5.53;;;;;;;38.81;25.19;98275.47;6947421;28;20219;-92
2023/06/22 14:38:34;;;;;;;18.23;6.40;;;;;;;38.22;25.72;98185.25;6946906;28;20210;-91
2023/06/22 14:41:57;;;;;;;11.27;5.00;;;;;;;38.19;25.42;98197.34;6947544;28;20211;-92
2023/06/22 14:45:18;;;;;;;10.43;5.37;;;;;;;38.72;24.66;98277.09;6947456;28;20202;-92
2023/06/22 14:48:40;;;;;;;11.43;5.03;;;;;;;39.01;24.98;98298.47;6946223;28;20322;-85
2023/06/22 14:52:01;;;;;;;11.52;5.20;;;;;;;39.01;24.61;98302.06;6946601;28;20230;-90
2023/06/22 14:55:23;;;;;;;8.37;5.00;;;;;;;38.88;24.79;98297.22;6946943;28;20203;-89
2023/06/22 14:58:46;;;;;;;9.43;4.90;;;;;;;38.03;25.05;98228.66;6972303;28;20319;-89
2023/06/22 15:02:07;;;;;;;8.23;4.67;;;;;;;38.57;26.09;98309.28;6968328;28;20228;-89
2023/06/22 15:05:29;;;;;;;11.13;4.83;;;;;;;38.54;25.57;98296.78;6957520;28;20676;-89
2023/06/22 15:08:50;;;;;;;11.10;4.60;;;;;;;39.08;23.76;98298.44;6972207;28;20805;-89
2023/06/22 15:12:12;;;;;;;6.37;4.07;;;;;;;38.31;21.93;98290.69;6973810;28;20344;-89
2023/06/22 15:15:35;;;;;;;9.73;4.37;;;;;;;37.83;22.75;98300.56;6974069;28;20667;-86
2023/06/22 15:18:56;;;;;;;9.30;3.80;;;;;;;37.33;22.65;98245.25;6972932;28;20237;-86
2023/06/22 15:22:19;;;;;;;10.07;4.87;;;;;;;37.38;22.66;98242.03;6973680;28;20292;-85
2023/06/22 15:25:41;;;;;;;10.63;3.97;;;;;;;37.87;23.17;98281.69;6974012;28;20654;-85
2023/06/22 15:29:03;;;;;;;11.97;4.27;;;;;;;37.94;22.61;98255.56;6972757;28;20236;-85
2023/06/22 15:32:26;;;;;;;7.73;3.20;;;;;;;37.70;22.34;98295.69;6973208;28;21028;-85
2023/06/22 15:35:47;;;;;;;11.40;3.80;;;;;;;37.44;21.56;98293.13;6973532;28;20739;-86
2023/06/22 15:39:09;;;;;;;9.97;3.63;;;;;;;38.08;20.55;98293.03;6970911;28;20752;-85
2023/06/22 15:42:30;;;;;;;12.83;4.67;;;;;;;37.42;21.06;98220.34;6978183;28;20687;-85
2023/06/22 15:45:53;;;;;;;8.00;4.10;;;;;;;37.69;21.21;98296.88;6976199;28;20348;-85